sensor_id;sensor_type;location;lat;lon;timestamp;P1;durP1;ratioP1;P2;durP2;ratioP2
19575;SDS011;41589;51.196;7.074;2023-06-24T00:00:15;1.00;;;1.00;;
19575;SDS011;41589;51.196;7.074;2023-06-24T00:05:19;1.07;;;1.07;;
19575;SDS011;41589;51.196;7.074;2023-06-24T00:10:19;0.80;;;0.80;;
19575;SDS011;41589;51.196;7.074;2023-06-24T00:15:20;0.90;;;0.90;;
19575;SDS011;41589;51.196;7.074;2023-06-24T00:20:20;0.97;;;0.97;;
19575;SDS011;41589;51.196;7.074;2023-06-24T00:25:20;1.30;;;1.20;;
19575;SDS011;41589;51.196;7.074;2023-06-24T00:30:21;1.10;;;1.10;;
19575;SDS011;41589;51.196;7.074;2023-06-24T00:35:22;1.10;;;1.10;;
19575;SDS011;41589;51.196;7.074;2023-06-24T00:40:23;1.13;;;1.13;;
19575;SDS011;41589;51.196;7.074;2023-06-24T00:45:24;1.00;;;1.00;;
19575;SDS011;41589;51.196;7.074;2023-06-24T00:50:24;1.10;;;1.10;;
19575;SDS011;41589;51.196;7.074;2023-06-24T00:55:27;1.00;;;1.00;;
19575;SDS011;41589;51.196;7.074;2023-06-24T01:00:29;1.10;;;1.10;;
19575;SDS011;41589;51.196;7.074;2023-06-24T01:05:32;1.23;;;1.13;;
19575;SDS011;41589;51.196;7.074;2023-06-24T01:10:35;1.10;;;1.10;;
19575;SDS011;41589;51.196;7.074;2023-06-24T01:15:35;0.93;;;0.93;;
19575;SDS011;41589;51.196;7.074;2023-06-24T01:20:41;1.20;;;1.20;;
19575;SDS011;41589;51.196;7.074;2023-06-24T01:26:14;1.17;;;1.17;;
19575;SDS011;41589;51.196;7.074;2023-06-24T01:36:47;1.33;;;1.27;;
19575;SDS011;41589;51.196;7.074;2023-06-24T01:41:56;1.10;;;1.10;;
19575;SDS011;41589;51.196;7.074;2023-06-24T01:47:00;1.73;;;1.63;;
19575;SDS011;41589;51.196;7.074;2023-06-24T01:52:07;1.13;;;1.13;;
19575;SDS011;41589;51.196;7.074;2023-06-24T01:57:08;1.10;;;1.10;;
19575;SDS011;41589;51.196;7.074;2023-06-24T02:02:12;1.33;;;1.30;;
19575;SDS011;41589;51.196;7.074;2023-06-24T02:07:13;1.30;;;1.20;;
19575;SDS011;41589;51.196;7.074;2023-06-24T02:12:17;1.20;;;1.20;;
19575;SDS011;41589;51.196;7.074;2023-06-24T02:17:37;1.10;;;1.10;;
19575;SDS011;41589;51.196;7.074;2023-06-24T02:22:39;1.57;;;1.47;;
19575;SDS011;41589;51.196;7.074;2023-06-24T02:27:40;1.40;;;1.40;;
19575;SDS011;41589;51.196;7.074;2023-06-24T02:32:41;1.23;;;1.13;;
19575;SDS011;41589;51.196;7.074;2023-06-24T02:37:42;1.20;;;1.20;;
19575;SDS011;41589;51.196;7.074;2023-06-24T02:42:42;1.30;;;1.20;;
19575;SDS011;41589;51.196;7.074;2023-06-24T02:47:43;1.63;;;1.53;;
19575;SDS011;41589;51.196;7.074;2023-06-24T02:52:46;1.33;;;1.23;;
19575;SDS011;41589;51.196;7.074;2023-06-24T02:57:51;1.30;;;1.20;;
19575;SDS011;41589;51.196;7.074;2023-06-24T03:03:26;1.30;;;1.30;;
19575;SDS011;41589;51.196;7.074;2023-06-24T03:08:29;1.23;;;1.23;;
19575;SDS011;41589;51.196;7.074;2023-06-24T03:13:30;1.50;;;1.40;;
19575;SDS011;41589;51.196;7.074;2023-06-24T03:18:41;1.20;;;1.20;;
19575;SDS011;41589;51.196;7.074;2023-06-24T03:23:42;1.30;;;1.30;;
19575;SDS011;41589;51.196;7.074;2023-06-24T03:28:44;1.40;;;1.30;;
19575;SDS011;41589;51.196;7.074;2023-06-24T03:33:49;1.20;;;1.20;;
19575;SDS011;41589;51.196;7.074;2023-06-24T03:38:57;1.20;;;1.20;;
19575;SDS011;41589;51.196;7.074;2023-06-24T03:44:01;1.30;;;1.30;;
19575;SDS011;41589;51.196;7.074;2023-06-24T03:49:02;1.00;;;1.00;;
19575;SDS011;41589;51.196;7.074;2023-06-24T03:54:03;1.03;;;1.03;;
19575;SDS011;41589;51.196;7.074;2023-06-24T03:59:04;1.20;;;1.20;;
19575;SDS011;41589;51.196;7.074;2023-06-24T04:04:04;1.20;;;1.20;;
19575;SDS011;41589;51.196;7.074;2023-06-24T04:09:05;1.23;;;1.13;;
19575;SDS011;41589;51.196;7.074;2023-06-24T04:14:06;1.03;;;1.00;;
19575;SDS011;41589;51.196;7.074;2023-06-24T04:19:09;1.30;;;1.30;;
19575;SDS011;41589;51.196;7.074;2023-06-24T04:24:11;1.37;;;1.27;;
19575;SDS011;41589;51.196;7.074;2023-06-24T04:29:11;1.23;;;1.23;;
19575;SDS011;41589;51.196;7.074;2023-06-24T04:34:12;1.30;;;1.30;;
19575;SDS011;41589;51.196;7.074;2023-06-24T04:39:13;1.20;;;1.10;;
19575;SDS011;41589;51.196;7.074;2023-06-24T04:44:14;1.50;;;1.40;;
19575;SDS011;41589;51.196;7.074;2023-06-24T04:49:14;1.30;;;1.20;;
19575;SDS011;41589;51.196;7.074;2023-06-24T04:54:15;1.20;;;1.20;;
19575;SDS011;41589;51.196;7.074;2023-06-24T04:59:15;1.20;;;1.20;;
19575;SDS011;41589;51.196;7.074;2023-06-24T05:04:15;1.40;;;1.20;;
19575;SDS011;41589;51.196;7.074;2023-06-24T05:09:16;1.60;;;1.50;;
19575;SDS011;41589;51.196;7.074;2023-06-24T05:14:16;1.53;;;1.43;;
19575;SDS011;41589;51.196;7.074;2023-06-24T05:19:16;1.30;;;1.30;;
19575;SDS011;41589;51.196;7.074;2023-06-24T05:24:17;1.73;;;1.53;;
19575;SDS011;41589;51.196;7.074;2023-06-24T05:29:17;1.47;;;1.37;;
19575;SDS011;41589;51.196;7.074;2023-06-24T05:34:21;1.30;;;1.30;;
19575;SDS011;41589;51.196;7.074;2023-06-24T05:39:21;1.30;;;1.20;;
19575;SDS011;41589;51.196;7.074;2023-06-24T05:44:21;1.40;;;1.40;;
19575;SDS011;41589;51.196;7.074;2023-06-24T05:49:23;1.40;;;1.37;;
19575;SDS011;41589;51.196;7.074;2023-06-24T05:54:23;1.80;;;1.60;;
19575;SDS011;41589;51.196;7.074;2023-06-24T05:59:23;1.70;;;1.60;;
19575;SDS011;41589;51.196;7.074;2023-06-24T06:04:24;1.60;;;1.50;;
19575;SDS011;41589;51.196;7.074;2023-06-24T06:09:24;1.67;;;1.57;;
19575;SDS011;41589;51.196;7.074;2023-06-24T06:14:24;1.60;;;1.60;;
19575;SDS011;41589;51.196;7.074;2023-06-24T06:19:25;1.53;;;1.50;;
19575;SDS011;41589;51.196;7.074;2023-06-24T06:24:25;1.93;;;1.83;;
19575;SDS011;41589;51.196;7.074;2023-06-24T06:29:25;1.80;;;1.70;;
19575;SDS011;41589;51.196;7.074;2023-06-24T06:34:26;1.90;;;1.80;;
19575;SDS011;41589;51.196;7.074;2023-06-24T06:39:26;2.07;;;1.90;;
19575;SDS011;41589;51.196;7.074;2023-06-24T06:44:27;2.10;;;2.00;;
19575;SDS011;41589;51.196;7.074;2023-06-24T06:49:27;2.40;;;2.30;;
19575;SDS011;41589;51.196;7.074;2023-06-24T06:54:27;2.27;;;2.17;;
19575;SDS011;41589;51.196;7.074;2023-06-24T06:59:28;2.60;;;2.43;;
19575;SDS011;41589;51.196;7.074;2023-06-24T07:04:28;2.10;;;2.00;;
19575;SDS011;41589;51.196;7.074;2023-06-24T07:09:28;2.40;;;2.30;;
19575;SDS011;41589;51.196;7.074;2023-06-24T07:14:29;2.23;;;2.13;;
19575;SDS011;41589;51.196;7.074;2023-06-24T07:19:29;2.50;;;2.40;;
19575;SDS011;41589;51.196;7.074;2023-06-24T07:24:29;2.30;;;2.20;;
19575;SDS011;41589;51.196;7.074;2023-06-24T07:29:30;2.60;;;2.50;;
19575;SDS011;41589;51.196;7.074;2023-06-24T07:34:30;2.43;;;2.33;;
19575;SDS011;41589;51.196;7.074;2023-06-24T07:39:30;2.47;;;2.37;;
19575;SDS011;41589;51.196;7.074;2023-06-24T07:44:31;2.37;;;2.27;;
19575;SDS011;41589;51.196;7.074;2023-06-24T07:49:31;2.57;;;2.47;;
19575;SDS011;41589;51.196;7.074;2023-06-24T07:54:32;3.07;;;2.87;;
19575;SDS011;41589;51.196;7.074;2023-06-24T07:59:37;3.10;;;2.90;;
19575;SDS011;41589;51.196;7.074;2023-06-24T08:04:38;2.90;;;2.70;;
19575;SDS011;41589;51.196;7.074;2023-06-24T08:09:38;2.87;;;2.67;;
19575;SDS011;41589;51.196;7.074;2023-06-24T08:14:38;2.57;;;2.47;;
19575;SDS011;41589;51.196;7.074;2023-06-24T08:19:39;2.40;;;2.23;;
19575;SDS011;41589;51.196;7.074;2023-06-24T08:24:39;2.47;;;2.37;;
19575;SDS011;41589;51.196;7.074;2023-06-24T08:29:40;2.20;;;2.10;;
19575;SDS011;41589;51.196;7.074;2023-06-24T08:34:47;2.73;;;2.17;;
19575;SDS011;41589;51.196;7.074;2023-06-24T08:39:48;1.97;;;1.87;;
19575;SDS011;41589;51.196;7.074;2023-06-24T08:44:48;2.33;;;2.10;;
19575;SDS011;41589;51.196;7.074;2023-06-24T08:49:48;2.33;;;2.13;;
19575;SDS011;41589;51.196;7.074;2023-06-24T08:54:55;2.63;;;2.40;;
19575;SDS011;41589;51.196;7.074;2023-06-24T08:59:59;2.47;;;2.27;;
19575;SDS011;41589;51.196;7.074;2023-06-24T09:04:59;2.50;;;2.30;;
19575;SDS011;41589;51.196;7.074;2023-06-24T09:09:59;2.20;;;2.10;;
19575;SDS011;41589;51.196;7.074;2023-06-24T09:15:03;1.90;;;1.80;;
19575;SDS011;41589;51.196;7.074;2023-06-24T09:20:05;1.80;;;1.70;;
19575;SDS011;41589;51.196;7.074;2023-06-24T09:25:09;1.80;;;1.70;;
19575;SDS011;41589;51.196;7.074;2023-06-24T09:30:19;1.70;;;1.60;;
19575;SDS011;41589;51.196;7.074;2023-06-24T09:35:25;1.70;;;1.60;;
19575;SDS011;41589;51.196;7.074;2023-06-24T09:40:25;1.60;;;1.50;;
19575;SDS011;41589;51.196;7.074;2023-06-24T09:45:26;1.73;;;1.63;;
19575;SDS011;41589;51.196;7.074;2023-06-24T09:50:28;1.80;;;1.70;;
19575;SDS011;41589;51.196;7.074;2023-06-24T09:55:34;1.90;;;1.80;;
19575;SDS011;41589;51.196;7.074;2023-06-24T10:00:34;1.70;;;1.60;;
19575;SDS011;41589;51.196;7.074;2023-06-24T10:05:34;1.53;;;1.43;;
19575;SDS011;41589;51.196;7.074;2023-06-24T10:10:38;1.60;;;1.40;;
19575;SDS011;41589;51.196;7.074;2023-06-24T10:15:39;1.30;;;1.30;;
19575;SDS011;41589;51.196;7.074;2023-06-24T10:20:48;1.43;;;1.33;;
19575;SDS011;41589;51.196;7.074;2023-06-24T10:25:49;1.80;;;1.70;;
19575;SDS011;41589;51.196;7.074;2023-06-24T10:36:31;1.13;;;1.13;;
19575;SDS011;41589;51.196;7.074;2023-06-24T10:41:32;1.30;;;1.30;;
19575;SDS011;41589;51.196;7.074;2023-06-24T10:46:33;1.10;;;1.10;;
19575;SDS011;41589;51.196;7.074;2023-06-24T10:51:33;1.00;;;1.00;;
19575;SDS011;41589;51.196;7.074;2023-06-24T10:56:34;1.27;;;1.17;;
19575;SDS011;41589;51.196;7.074;2023-06-24T11:01:51;1.07;;;1.07;;
19575;SDS011;41589;51.196;7.074;2023-06-24T11:07:03;0.80;;;0.80;;
19575;SDS011;41589;51.196;7.074;2023-06-24T11:12:04;0.90;;;0.90;;
19575;SDS011;41589;51.196;7.074;2023-06-24T11:17:07;0.80;;;0.80;;
19575;SDS011;41589;51.196;7.074;2023-06-24T11:22:09;1.37;;;0.93;;
19575;SDS011;41589;51.196;7.074;2023-06-24T11:27:10;0.80;;;0.80;;
19575;SDS011;41589;51.196;7.074;2023-06-24T11:32:16;1.37;;;1.10;;
19575;SDS011;41589;51.196;7.074;2023-06-24T11:37:19;0.97;;;0.90;;
19575;SDS011;41589;51.196;7.074;2023-06-24T11:42:31;0.80;;;0.80;;
19575;SDS011;41589;51.196;7.074;2023-06-24T11:47:41;0.77;;;0.77;;
19575;SDS011;41589;51.196;7.074;2023-06-24T11:52:42;0.93;;;0.90;;
19575;SDS011;41589;51.196;7.074;2023-06-24T11:57:51;0.90;;;0.90;;
19575;SDS011;41589;51.196;7.074;2023-06-24T12:02:56;1.00;;;1.00;;
19575;SDS011;41589;51.196;7.074;2023-06-24T12:08:02;0.90;;;0.90;;
19575;SDS011;41589;51.196;7.074;2023-06-24T12:13:14;0.87;;;0.83;;
19575;SDS011;41589;51.196;7.074;2023-06-24T12:18:14;0.67;;;0.67;;
19575;SDS011;41589;51.196;7.074;2023-06-24T12:23:15;0.80;;;0.80;;
19575;SDS011;41589;51.196;7.074;2023-06-24T12:28:15;0.70;;;0.70;;
19575;SDS011;41589;51.196;7.074;2023-06-24T12:33:16;0.80;;;0.80;;
19575;SDS011;41589;51.196;7.074;2023-06-24T12:38:22;1.60;;;0.93;;
19575;SDS011;41589;51.196;7.074;2023-06-24T12:43:25;0.60;;;0.60;;
19575;SDS011;41589;51.196;7.074;2023-06-24T12:48:32;0.70;;;0.70;;
19575;SDS011;41589;51.196;7.074;2023-06-24T12:53:33;1.63;;;0.90;;
19575;SDS011;41589;51.196;7.074;2023-06-24T12:58:33;1.03;;;0.87;;
19575;SDS011;41589;51.196;7.074;2023-06-24T13:03:34;0.83;;;0.80;;
19575;SDS011;41589;51.196;7.074;2023-06-24T13:08:37;0.80;;;0.80;;
19575;SDS011;41589;51.196;7.074;2023-06-24T13:13:37;1.07;;;0.70;;
19575;SDS011;41589;51.196;7.074;2023-06-24T13:18:40;0.70;;;0.70;;
19575;SDS011;41589;51.196;7.074;2023-06-24T13:23:44;0.60;;;0.60;;
19575;SDS011;41589;51.196;7.074;2023-06-24T13:28:49;1.43;;;0.83;;
19575;SDS011;41589;51.196;7.074;2023-06-24T13:33:49;0.67;;;0.67;;
19575;SDS011;41589;51.196;7.074;2023-06-24T13:38:50;0.60;;;0.60;;
19575;SDS011;41589;51.196;7.074;2023-06-24T13:43:50;0.70;;;0.70;;
19575;SDS011;41589;51.196;7.074;2023-06-24T13:48:51;0.70;;;0.70;;
19575;SDS011;41589;51.196;7.074;2023-06-24T13:53:52;0.70;;;0.70;;
19575;SDS011;41589;51.196;7.074;2023-06-24T13:58:53;0.70;;;0.70;;
19575;SDS011;41589;51.196;7.074;2023-06-24T14:03:54;1.07;;;0.90;;
19575;SDS011;41589;51.196;7.074;2023-06-24T14:08:55;0.60;;;0.60;;
19575;SDS011;41589;51.196;7.074;2023-06-24T14:13:55;0.60;;;0.60;;
19575;SDS011;41589;51.196;7.074;2023-06-24T14:18:56;0.70;;;0.70;;
19575;SDS011;41589;51.196;7.074;2023-06-24T14:23:57;0.60;;;0.60;;
19575;SDS011;41589;51.196;7.074;2023-06-24T14:28:57;0.70;;;0.70;;
19575;SDS011;41589;51.196;7.074;2023-06-24T14:33:58;0.70;;;0.70;;
19575;SDS011;41589;51.196;7.074;2023-06-24T14:38:58;0.70;;;0.70;;
19575;SDS011;41589;51.196;7.074;2023-06-24T14:43:58;0.87;;;0.73;;
19575;SDS011;41589;51.196;7.074;2023-06-24T14:48:59;0.70;;;0.70;;
19575;SDS011;41589;51.196;7.074;2023-06-24T14:54:00;0.70;;;0.70;;
19575;SDS011;41589;51.196;7.074;2023-06-24T14:59:00;0.80;;;0.80;;
19575;SDS011;41589;51.196;7.074;2023-06-24T15:04:01;0.80;;;0.80;;
19575;SDS011;41589;51.196;7.074;2023-06-24T15:09:01;0.77;;;0.77;;
19575;SDS011;41589;51.196;7.074;2023-06-24T15:14:01;0.63;;;0.63;;
19575;SDS011;41589;51.196;7.074;2023-06-24T15:19:02;0.70;;;0.70;;
19575;SDS011;41589;51.196;7.074;2023-06-24T15:24:02;0.60;;;0.60;;
19575;SDS011;41589;51.196;7.074;2023-06-24T15:29:03;0.63;;;0.63;;
19575;SDS011;41589;51.196;7.074;2023-06-24T15:34:03;0.73;;;0.73;;
19575;SDS011;41589;51.196;7.074;2023-06-24T15:39:04;0.63;;;0.63;;
19575;SDS011;41589;51.196;7.074;2023-06-24T15:44:05;0.70;;;0.70;;
19575;SDS011;41589;51.196;7.074;2023-06-24T15:49:05;0.60;;;0.60;;
19575;SDS011;41589;51.196;7.074;2023-06-24T15:54:06;0.70;;;0.70;;
19575;SDS011;41589;51.196;7.074;2023-06-24T15:59:06;0.50;;;0.50;;
19575;SDS011;41589;51.196;7.074;2023-06-24T16:04:06;0.50;;;0.50;;
19575;SDS011;41589;51.196;7.074;2023-06-24T16:09:09;0.83;;;0.80;;
19575;SDS011;41589;51.196;7.074;2023-06-24T16:14:09;0.70;;;0.70;;
19575;SDS011;41589;51.196;7.074;2023-06-24T16:19:09;0.60;;;0.60;;
19575;SDS011;41589;51.196;7.074;2023-06-24T16:24:10;0.60;;;0.60;;
19575;SDS011;41589;51.196;7.074;2023-06-24T16:29:11;0.50;;;0.50;;
19575;SDS011;41589;51.196;7.074;2023-06-24T16:34:11;0.60;;;0.60;;
19575;SDS011;41589;51.196;7.074;2023-06-24T16:39:12;0.60;;;0.60;;
19575;SDS011;41589;51.196;7.074;2023-06-24T16:44:12;0.60;;;0.60;;
19575;SDS011;41589;51.196;7.074;2023-06-24T16:49:13;0.50;;;0.50;;
19575;SDS011;41589;51.196;7.074;2023-06-24T16:54:13;1.03;;;0.87;;
19575;SDS011;41589;51.196;7.074;2023-06-24T16:59:13;0.70;;;0.70;;
19575;SDS011;41589;51.196;7.074;2023-06-24T17:04:14;0.63;;;0.63;;
19575;SDS011;41589;51.196;7.074;2023-06-24T17:09:14;0.60;;;0.60;;
19575;SDS011;41589;51.196;7.074;2023-06-24T17:14:15;0.70;;;0.70;;
19575;SDS011;41589;51.196;7.074;2023-06-24T17:19:15;0.60;;;0.60;;
19575;SDS011;41589;51.196;7.074;2023-06-24T17:24:15;0.77;;;0.70;;
19575;SDS011;41589;51.196;7.074;2023-06-24T17:29:16;3.20;;;2.97;;
19575;SDS011;41589;51.196;7.074;2023-06-24T17:34:16;1.50;;;1.50;;
19575;SDS011;41589;51.196;7.074;2023-06-24T17:39:19;0.80;;;0.80;;
19575;SDS011;41589;51.196;7.074;2023-06-24T17:44:20;0.80;;;0.80;;
19575;SDS011;41589;51.196;7.074;2023-06-24T17:49:20;0.83;;;0.83;;
19575;SDS011;41589;51.196;7.074;2023-06-24T17:54:20;0.57;;;0.57;;
19575;SDS011;41589;51.196;7.074;2023-06-24T17:59:21;0.70;;;0.70;;
19575;SDS011;41589;51.196;7.074;2023-06-24T18:04:21;0.80;;;0.80;;
19575;SDS011;41589;51.196;7.074;2023-06-24T18:09:22;0.70;;;0.70;;
19575;SDS011;41589;51.196;7.074;2023-06-24T18:14:22;0.60;;;0.60;;
19575;SDS011;41589;51.196;7.074;2023-06-24T18:19:23;0.67;;;0.67;;
19575;SDS011;41589;51.196;7.074;2023-06-24T18:24:23;0.70;;;0.70;;
19575;SDS011;41589;51.196;7.074;2023-06-24T18:29:24;0.70;;;0.70;;
19575;SDS011;41589;51.196;7.074;2023-06-24T18:34:24;0.70;;;0.70;;
19575;SDS011;41589;51.196;7.074;2023-06-24T18:39:24;0.70;;;0.70;;
19575;SDS011;41589;51.196;7.074;2023-06-24T18:44:26;0.70;;;0.70;;
19575;SDS011;41589;51.196;7.074;2023-06-24T18:49:27;1.13;;;0.70;;
19575;SDS011;41589;51.196;7.074;2023-06-24T18:54:27;0.63;;;0.63;;
19575;SDS011;41589;51.196;7.074;2023-06-24T18:59:27;0.70;;;0.70;;
19575;SDS011;41589;51.196;7.074;2023-06-24T19:04:28;1.03;;;0.80;;
19575;SDS011;41589;51.196;7.074;2023-06-24T19:09:28;0.77;;;0.77;;
19575;SDS011;41589;51.196;7.074;2023-06-24T19:14:28;0.77;;;0.77;;
19575;SDS011;41589;51.196;7.074;2023-06-24T19:19:29;0.70;;;0.70;;
19575;SDS011;41589;51.196;7.074;2023-06-24T19:24:29;0.90;;;0.90;;
19575;SDS011;41589;51.196;7.074;2023-06-24T19:29:30;0.80;;;0.80;;
19575;SDS011;41589;51.196;7.074;2023-06-24T19:34:31;0.90;;;0.90;;
19575;SDS011;41589;51.196;7.074;2023-06-24T19:39:32;0.60;;;0.60;;
19575;SDS011;41589;51.196;7.074;2023-06-24T19:44:32;1.13;;;1.10;;
19575;SDS011;41589;51.196;7.074;2023-06-24T19:49:33;0.83;;;0.83;;
19575;SDS011;41589;51.196;7.074;2023-06-24T19:54:33;1.40;;;1.30;;
19575;SDS011;41589;51.196;7.074;2023-06-24T19:59:33;0.80;;;0.80;;
19575;SDS011;41589;51.196;7.074;2023-06-24T20:04:34;0.97;;;0.90;;
19575;SDS011;41589;51.196;7.074;2023-06-24T20:09:35;0.80;;;0.80;;
19575;SDS011;41589;51.196;7.074;2023-06-24T20:14:35;0.80;;;0.80;;
19575;SDS011;41589;51.196;7.074;2023-06-24T20:19:36;0.90;;;0.90;;
19575;SDS011;41589;51.196;7.074;2023-06-24T20:24:36;0.90;;;0.90;;
19575;SDS011;41589;51.196;7.074;2023-06-24T20:29:36;1.03;;;0.90;;
19575;SDS011;41589;51.196;7.074;2023-06-24T20:34:37;0.97;;;0.97;;
19575;SDS011;41589;51.196;7.074;2023-06-24T20:39:37;1.00;;;1.00;;
19575;SDS011;41589;51.196;7.074;2023-06-24T20:44:41;0.90;;;0.90;;
19575;SDS011;41589;51.196;7.074;2023-06-24T20:49:42;1.63;;;1.10;;
19575;SDS011;41589;51.196;7.074;2023-06-24T20:54:42;1.10;;;1.10;;
19575;SDS011;41589;51.196;7.074;2023-06-24T20:59:43;1.00;;;1.00;;
19575;SDS011;41589;51.196;7.074;2023-06-24T21:04:43;1.00;;;1.00;;
19575;SDS011;41589;51.196;7.074;2023-06-24T21:09:43;0.90;;;0.90;;
19575;SDS011;41589;51.196;7.074;2023-06-24T21:14:44;1.00;;;1.00;;
19575;SDS011;41589;51.196;7.074;2023-06-24T21:19:44;1.07;;;1.07;;
19575;SDS011;41589;51.196;7.074;2023-06-24T21:24:44;1.10;;;1.10;;
19575;SDS011;41589;51.196;7.074;2023-06-24T21:29:45;1.47;;;1.00;;
19575;SDS011;41589;51.196;7.074;2023-06-24T21:34:45;1.20;;;1.10;;
19575;SDS011;41589;51.196;7.074;2023-06-24T21:39:45;1.17;;;1.00;;
19575;SDS011;41589;51.196;7.074;2023-06-24T21:44:46;1.20;;;1.20;;
19575;SDS011;41589;51.196;7.074;2023-06-24T21:49:46;1.00;;;1.00;;
19575;SDS011;41589;51.196;7.074;2023-06-24T21:54:46;1.23;;;0.90;;
19575;SDS011;41589;51.196;7.074;2023-06-24T21:59:47;1.00;;;1.00;;
19575;SDS011;41589;51.196;7.074;2023-06-24T22:04:47;0.80;;;0.80;;
19575;SDS011;41589;51.196;7.074;2023-06-24T22:09:48;1.00;;;1.00;;
19575;SDS011;41589;51.196;7.074;2023-06-24T22:14:48;0.93;;;0.93;;
19575;SDS011;41589;51.196;7.074;2023-06-24T22:19:48;0.90;;;0.90;;
19575;SDS011;41589;51.196;7.074;2023-06-24T22:24:49;1.00;;;1.00;;
19575;SDS011;41589;51.196;7.074;2023-06-24T22:29:49;0.93;;;0.93;;
19575;SDS011;41589;51.196;7.074;2023-06-24T22:34:50;0.90;;;0.90;;
19575;SDS011;41589;51.196;7.074;2023-06-24T22:39:50;1.00;;;1.00;;
19575;SDS011;41589;51.196;7.074;2023-06-24T22:44:50;0.93;;;0.93;;
19575;SDS011;41589;51.196;7.074;2023-06-24T22:49:51;1.10;;;1.10;;
19575;SDS011;41589;51.196;7.074;2023-06-24T22:54:51;1.00;;;1.00;;
19575;SDS011;41589;51.196;7.074;2023-06-24T22:59:51;1.03;;;1.03;;
19575;SDS011;41589;51.196;7.074;2023-06-24T23:04:52;0.90;;;0.90;;
19575;SDS011;41589;51.196;7.074;2023-06-24T23:09:52;0.90;;;0.90;;
19575;SDS011;41589;51.196;7.074;2023-06-24T23:14:53;0.90;;;0.90;;
19575;SDS011;41589;51.196;7.074;2023-06-24T23:19:56;1.67;;;0.93;;
19575;SDS011;41589;51.196;7.074;2023-06-24T23:24:58;0.90;;;0.90;;
19575;SDS011;41589;51.196;7.074;2023-06-24T23:29:58;1.17;;;1.17;;
19575;SDS011;41589;51.196;7.074;2023-06-24T23:35:00;0.90;;;0.90;;
19575;SDS011;41589;51.196;7.074;2023-06-24T23:40:01;0.90;;;0.90;;
19575;SDS011;41589;51.196;7.074;2023-06-24T23:45:05;1.27;;;1.00;;
19575;SDS011;41589;51.196;7.074;2023-06-24T23:50:06;1.10;;;1.10;;
19575;SDS011;41589;51.196;7.074;2023-06-24T23:55:07;0.90;;;0.90;;
